Norwich, CT

7:26 PM EDT on September 16, 2014 (GMT -0400)
Kimball Road | Change Station
CLOSE
Current Station
Personal Weather Station
Location: Lisbon, CT
Elevation: 404 ft
Nearby Weather Stations

Elev 404 ft 41.64 °N, 72.01 °W | Updated 9 minutes ago

Overcast
Overcast
60.4 °F
Feels Like 60.4 °F
N
0.0
Wind Variable Wind from SW

Today
High -- | Low -- °F
--% Chance of Precip.
Yesterday
High -- | Low -- °F
Precip. -- in
6:29 AM 6:55 PM
Last Quarter, 41% visible
Pressure 29.98 in
Visibility 10.0 miles
Clouds Overcast 7000 ft
Dew Point 56 °F
Humidity 87%
Rainfall 0.02 in
Snow Depth Not available.
UV 0 out of 12
Pollen 2.70 out of 12
Ozone Good
PM2.5 Good
Flu Activity Not available.
METAR KIJD 162252Z AUTO 00000KT 10SM OVC070 17/13 A2998 RMK AO2 SLP152 T01720133

More Conditions Fewer Conditions

Pressure 29.98 in
Visibility 10.0 miles
Clouds Overcast 7000 ft
Dew Point 56 °F
Humidity 87%
Rainfall 0.02 in
Snow Depth Not available.
UV 0 out of 12
Pollen 2.70 out of 12
Ozone Good
PM2.5 Good
Flu Activity Not available.
METAR KIJD 162252Z AUTO 00000KT 10SM OVC070 17/13 A2998 RMK AO2 SLP152 T01720133

More Conditions Fewer Conditions

10-Day Weather Forecast

Almanac

Astronomy

Sep. 16, 2014 Rise Set
Actual Time 6:29 AM EDT 6:55 PM EDT
Civil Twilight 6:01 AM EDT 7:23 PM EDT
Nautical Twilight 5:28 AM EDT 7:56 PM EDT
Astronomical Twilight 4:54 AM EDT 8:29 PM EDT
Moon No Moon Rise 2:20 PM EDT
Length of Visible Light 13h 22m
Length of Day
12h 26m
Tomorrow will be 2m 45s shorter.
Last Quarter, 41% of the Moon is Illuminated
Today
Last Quarter
Sep 24
New
Oct 1
First Quarter
Oct 8
Full
Oct 15
Last Quarter

Today's Extremes

State Highs State Lows

Community

WunderPhotos

Upload Photos

1,753,912 photos uploaded!

Nearby

Air Quality

  Air Quality AQ Index Pollutant
Yesterday Good
OZONE
Current Good
PM2.5
Current Good
OZONE
Tuesday Good
OZONE
Tuesday Good
PM2.5
Wednesday Good
PM2.5
Wednesday Good
OZONE

Snow Depth

Station Depth Elevation
No new snow has been reported.

Earthquake Activity

City Distance Mag. Time & Date
No recent earthquake activity has been reported nearby.
Minimum magnitude displayed is 2.5.

Coastal Water Temperatures

Place Temperature
New London, CT 68.0 °F
Newport, RI 68.0 °F
Quonset Point, RI 69.1 °F
Conimicut Light, RI 69.1 °F
Providence, RI 70.0 °F

Nearby Weather Stations